< < Back
Terminal Aerodrome Forecast


Current Version              Previous Versions:   1  2  3  4  5  6  7  8  9  

Terminal Aerodrome Forecast

217
FTAK31 PAJN 021100
TAFAGS
TAF
PAGS 021125Z 0212/0312 00000KT 6SM BR VCFG FEW005 SCT060
      TEMPO 0212/0215 1/2SM FG BKN003
     FM021500 13003KT 3SM BR OVC015
     FM021900 13008KT P6SM SCT015 BKN050
     FM030000 18004KT P6SM VCSH OVC050
     FM030800 VRB04KT 6SM BR VCSH OVC025
      AMD NOT SKED=



Latest METAR

962
SAUS70 KWBC 021700 RRE
MTRAGS
METAR KAGS 021653Z VRB05KT 10SM CLR 33/23 A3007 RMK AO2 SLP179
T03280228


USA.gov is the U.S. government's official web portal to all federal, state and local government web resources and services.